createdAt,value
2017-05-22T00:01:53.647Z,3.68
2017-05-22T00:04:29.270Z,4.43
2017-05-22T00:07:04.491Z,3.60
2017-05-22T00:09:39.907Z,3.68
2017-05-22T00:12:14.974Z,3.63
2017-05-22T00:14:50.525Z,3.35
2017-05-22T00:17:25.778Z,5.05
2017-05-22T00:20:01.231Z,3.93
2017-05-22T00:22:36.488Z,3.65
2017-05-22T00:25:12.023Z,3.47
2017-05-22T00:27:47.295Z,3.28
2017-05-22T00:30:22.580Z,3.23
2017-05-22T00:32:57.848Z,3.47
2017-05-22T00:35:33.180Z,3.05
2017-05-22T00:38:08.371Z,2.87
2017-05-22T00:40:43.626Z,3.30
2017-05-22T00:43:18.850Z,3.47
2017-05-22T00:45:54.139Z,2.90
2017-05-22T00:48:29.578Z,3.38
2017-05-22T00:51:04.787Z,2.70
2017-05-22T00:53:40.156Z,3.02
2017-05-22T00:56:15.435Z,3.43
2017-05-22T00:58:50.782Z,3.57
2017-05-22T01:01:25.940Z,3.52
2017-05-22T01:04:01.422Z,3.72
2017-05-22T01:06:36.725Z,3.78
2017-05-22T01:09:12.028Z,3.77
2017-05-22T01:11:47.207Z,3.78
2017-05-22T01:14:22.787Z,3.62
2017-05-22T01:16:57.939Z,3.65
2017-05-22T01:19:33.219Z,3.38
2017-05-22T01:22:08.521Z,3.77
2017-05-22T01:24:43.946Z,3.97
2017-05-22T01:27:19.232Z,3.87
2017-05-22T01:29:54.523Z,4.18
2017-05-22T01:32:29.824Z,3.98
2017-05-22T01:35:05.226Z,3.73
2017-05-22T01:37:40.533Z,4.17
2017-05-22T01:40:15.804Z,4.30
2017-05-22T01:42:51.078Z,5.17
2017-05-22T01:45:26.442Z,4.27
2017-05-22T01:48:01.718Z,4.17
2017-05-22T01:50:37.135Z,4.98
2017-05-22T01:53:12.407Z,5.47
2017-05-22T01:55:47.595Z,5.08
2017-05-22T01:58:22.861Z,4.75
2017-05-22T02:00:58.443Z,4.10
2017-05-22T02:03:33.671Z,4.93
2017-05-22T02:06:08.990Z,4.92
2017-05-22T02:08:44.399Z,5.38
2017-05-22T02:11:19.708Z,5.77
2017-05-22T02:13:55.001Z,5.23
2017-05-22T02:16:30.322Z,6.00
2017-05-22T02:19:05.402Z,5.70
2017-05-22T02:21:40.655Z,4.75
2017-05-22T02:24:15.865Z,5.57
2017-05-22T02:26:51.161Z,4.48
2017-05-22T02:29:26.499Z,5.07
2017-05-22T02:32:01.875Z,4.77
2017-05-22T02:34:37.140Z,4.33
2017-05-22T02:37:12.540Z,4.77
2017-05-22T02:39:47.802Z,5.40
2017-05-22T02:42:23.162Z,5.60
2017-05-22T02:44:58.712Z,6.47
2017-05-22T02:47:34.050Z,6.42
2017-05-22T02:50:09.249Z,6.53
2017-05-22T02:52:44.620Z,6.58
2017-05-22T02:55:19.887Z,6.32
2017-05-22T02:57:55.155Z,6.53
2017-05-22T03:00:30.382Z,5.90
2017-05-22T03:03:05.712Z,6.10
2017-05-22T03:05:40.878Z,5.85
2017-05-22T03:08:16.118Z,6.90
2017-05-22T03:10:51.371Z,6.58
2017-05-22T03:13:26.595Z,6.57
2017-05-22T03:16:01.933Z,7.35
2017-05-22T03:18:37.073Z,6.08
2017-05-22T03:21:12.547Z,6.32
2017-05-22T03:23:47.734Z,6.25
2017-05-22T03:26:23.131Z,5.37
2017-05-22T03:28:58.302Z,7.17
2017-05-22T03:31:33.562Z,7.20
2017-05-22T03:34:08.776Z,6.45
2017-05-22T03:36:44.158Z,7.50
2017-05-22T03:39:19.348Z,7.88
2017-05-22T03:41:54.833Z,7.43
2017-05-22T03:44:30.042Z,7.30
2017-05-22T03:47:05.542Z,8.28
2017-05-22T03:49:40.808Z,8.02
2017-05-22T03:52:16.150Z,6.98
2017-05-22T03:54:51.390Z,7.45
2017-05-22T03:57:26.790Z,7.02
2017-05-22T04:00:02.097Z,7.68
2017-05-22T04:02:37.480Z,7.72
2017-05-22T04:05:12.698Z,6.07
2017-05-22T04:07:48.014Z,7.63
2017-05-22T04:10:23.229Z,7.67
2017-05-22T04:12:58.675Z,7.32
2017-05-22T04:15:33.868Z,7.25
2017-05-22T04:18:09.117Z,8.20
2017-05-22T04:20:44.429Z,8.20
2017-05-22T04:23:19.918Z,7.57
2017-05-22T04:25:55.196Z,8.38
2017-05-22T04:28:30.541Z,8.77
2017-05-22T04:31:05.993Z,6.75
2017-05-22T04:33:41.309Z,6.72
2017-05-22T04:36:16.738Z,7.52
2017-05-22T04:38:51.965Z,6.57
2017-05-22T04:41:27.314Z,7.22
2017-05-22T04:44:02.590Z,6.73
2017-05-22T04:46:37.969Z,7.43
2017-05-22T04:49:13.246Z,6.95
2017-05-22T04:51:48.782Z,7.40
2017-05-22T04:54:23.932Z,7.38
2017-05-22T04:56:59.477Z,6.83
2017-05-22T04:59:34.738Z,6.75
2017-05-22T05:02:10.358Z,6.58
2017-05-22T05:04:45.728Z,6.25
2017-05-22T05:07:21.181Z,5.83
2017-05-22T05:09:56.500Z,5.43
2017-05-22T05:12:32.128Z,4.70
2017-05-22T05:15:07.481Z,5.75
2017-05-22T05:17:42.791Z,4.70
2017-05-22T05:20:17.503Z,4.93
2017-05-22T05:22:52.827Z,4.98
2017-05-22T05:25:29.972Z,3.87
2017-05-22T05:28:08.426Z,5.08
2017-05-22T05:30:43.611Z,4.27
2017-05-22T05:33:19.181Z,4.92
2017-05-22T05:35:54.370Z,4.53
2017-05-22T05:38:29.835Z,4.27
2017-05-22T05:41:05.067Z,4.55
2017-05-22T05:43:40.314Z,4.15
2017-05-22T05:46:15.797Z,4.85
2017-05-22T05:48:51.117Z,4.98
2017-05-22T05:51:26.391Z,4.05
2017-05-22T05:54:01.967Z,4.12
2017-05-22T05:56:37.426Z,4.08
2017-05-22T05:59:13.041Z,4.27
2017-05-22T06:01:48.315Z,4.88
2017-05-22T06:04:23.619Z,4.30
2017-05-22T06:06:59.025Z,4.05
2017-05-22T06:09:34.294Z,4.65
2017-05-22T06:12:14.188Z,4.67
2017-05-22T06:14:56.445Z,3.50
2017-05-22T06:17:37.735Z,4.07
2017-05-22T06:20:18.937Z,4.08
2017-05-22T06:22:59.643Z,4.47
2017-05-22T06:25:41.965Z,4.15
2017-05-22T06:28:23.996Z,4.92
2017-05-22T06:31:09.328Z,4.77
2017-05-22T06:33:52.339Z,3.90
2017-05-22T06:36:36.468Z,3.45
2017-05-22T06:39:21.406Z,4.53
2017-05-22T06:42:04.919Z,4.03
2017-05-22T06:44:49.834Z,3.62
2017-05-22T06:47:33.411Z,3.44
2017-05-22T06:50:14.710Z,3.52
2017-05-22T06:55:39.835Z,2.98
2017-05-22T06:58:20.524Z,3.16
2017-05-22T07:01:01.695Z,2.26
2017-05-22T07:03:38.782Z,1.92
2017-05-22T07:06:18.257Z,2.56
2017-05-22T07:08:55.072Z,3.02
2017-05-22T07:11:35.663Z,2.22
2017-05-22T07:14:12.042Z,1.42
2017-05-22T07:16:50.914Z,2.06
2017-05-22T07:19:27.620Z,1.66
2017-05-22T07:22:07.492Z,2.38
2017-05-22T07:24:43.978Z,1.76
2017-05-22T07:27:23.859Z,2.65
2017-05-22T07:30:01.239Z,1.63
2017-05-22T07:32:40.983Z,2.10
2017-05-22T07:35:17.543Z,2.30
2017-05-22T07:37:52.838Z,2.12
2017-05-22T07:40:28.144Z,2.68
2017-05-22T07:43:03.578Z,3.00
2017-05-22T07:45:39.233Z,3.07
2017-05-22T07:48:14.383Z,3.67
2017-05-22T07:50:49.954Z,2.92
2017-05-22T07:53:27.976Z,3.10
2017-05-22T07:56:10.505Z,2.55
2017-05-22T07:58:53.853Z,3.42
2017-05-22T08:01:38.570Z,4.20
2017-05-22T08:04:23.577Z,3.10
2017-05-22T08:07:07.050Z,4.27
2017-05-22T08:09:48.239Z,3.67
2017-05-22T08:12:30.935Z,3.00
2017-05-22T08:15:12.172Z,3.67
2017-05-22T08:17:53.842Z,3.53
2017-05-22T08:20:34.200Z,3.32
2017-05-22T08:23:15.372Z,3.25
2017-05-22T08:25:56.123Z,3.50
2017-05-22T08:28:37.676Z,2.90
2017-05-22T08:31:18.633Z,3.13
2017-05-22T08:33:59.421Z,3.23
2017-05-22T08:36:40.409Z,3.35
2017-05-22T08:39:22.076Z,3.47
2017-05-22T08:42:03.390Z,3.52
2017-05-22T08:44:45.003Z,3.22
2017-05-22T08:47:25.830Z,3.22
2017-05-22T08:50:07.519Z,2.78
2017-05-22T08:52:48.838Z,4.16
2017-05-22T08:55:29.729Z,2.96
2017-05-22T08:58:10.384Z,3.04
2017-05-22T09:00:51.540Z,3.30
2017-05-22T09:03:32.610Z,3.00
2017-05-22T09:06:13.812Z,3.72
2017-05-22T09:08:54.365Z,3.42
2017-05-22T09:11:35.585Z,3.60
2017-05-22T09:14:16.484Z,3.20
2017-05-22T09:16:53.168Z,3.46
2017-05-22T09:19:28.371Z,3.38
2017-05-22T09:22:03.729Z,3.20
2017-05-22T09:24:39.239Z,3.64
2017-05-22T09:27:14.693Z,3.96
2017-05-22T09:29:50.075Z,3.10
2017-05-22T09:32:25.358Z,3.68
2017-05-22T09:35:04.822Z,2.92
2017-05-22T09:37:44.514Z,3.44
2017-05-22T09:40:25.193Z,3.22
2017-05-22T09:43:06.815Z,2.70
2017-05-22T09:45:48.607Z,3.14
2017-05-22T09:48:29.136Z,3.10
2017-05-22T09:51:09.582Z,3.06
2017-05-22T09:53:46.041Z,2.46
2017-05-22T09:56:21.529Z,3.06
2017-05-22T09:58:56.826Z,2.52
2017-05-22T10:01:32.145Z,3.42
2017-05-22T10:04:07.360Z,3.30
2017-05-22T10:06:42.553Z,3.20
2017-05-22T10:09:17.889Z,3.70
2017-05-22T10:11:53.245Z,3.96
2017-05-22T10:14:28.455Z,3.82
2017-05-22T10:17:03.714Z,3.64
2017-05-22T10:19:38.974Z,3.34
2017-05-22T10:22:14.283Z,2.82
2017-05-22T10:24:49.709Z,3.02
2017-05-22T10:27:25.374Z,4.00
2017-05-22T10:30:00.727Z,3.34
2017-05-22T10:32:36.039Z,3.14
2017-05-22T10:35:11.425Z,3.72
2017-05-22T10:37:46.757Z,3.66
2017-05-22T10:40:22.027Z,3.98
2017-05-22T10:42:58.429Z,4.60
2017-05-22T10:45:33.930Z,4.22
2017-05-22T10:48:09.547Z,3.52
2017-05-22T10:50:44.815Z,3.60
2017-05-22T10:53:20.272Z,4.88
2017-05-22T10:55:55.655Z,3.44
2017-05-22T10:58:31.407Z,4.16
2017-05-22T11:01:07.840Z,4.90
2017-05-22T11:03:44.329Z,4.04
2017-05-22T11:06:20.833Z,4.04
2017-05-22T11:08:57.505Z,3.96
2017-05-22T11:11:34.147Z,4.92
2017-05-22T11:14:11.095Z,3.98
2017-05-22T11:16:47.797Z,4.18
2017-05-22T11:19:24.179Z,4.86
2017-05-22T11:22:01.205Z,4.42
2017-05-22T11:24:38.325Z,4.38
2017-05-22T11:27:15.356Z,3.62
2017-05-22T11:29:51.664Z,3.92
2017-05-22T11:32:28.190Z,4.86
2017-05-22T11:35:05.075Z,4.00
2017-05-22T11:37:41.813Z,4.40
2017-05-22T11:40:17.919Z,4.10
2017-05-22T11:42:54.211Z,4.48
2017-05-22T11:45:30.648Z,4.72
2017-05-22T11:48:07.633Z,4.12
2017-05-22T11:50:44.107Z,5.24
2017-05-22T11:53:20.445Z,3.98
2017-05-22T11:55:56.529Z,3.60
2017-05-22T11:58:32.746Z,3.98
2017-05-22T12:01:08.957Z,3.76
2017-05-22T12:03:45.424Z,4.76
2017-05-22T12:06:21.937Z,3.92
2017-05-22T12:08:58.209Z,3.90
2017-05-22T12:11:34.596Z,3.96
2017-05-22T12:14:10.979Z,4.48
2017-05-22T12:16:46.313Z,3.92
2017-05-22T12:19:22.400Z,3.18
2017-05-22T12:21:58.869Z,3.72
2017-05-22T12:24:35.118Z,3.88
2017-05-22T12:27:11.683Z,3.70
2017-05-22T12:29:47.845Z,4.12
2017-05-22T12:32:24.313Z,4.66
2017-05-22T12:35:00.223Z,3.70
2017-05-22T12:37:35.440Z,3.74
2017-05-22T12:40:10.920Z,3.82
2017-05-22T12:42:46.407Z,4.22
2017-05-22T12:45:21.631Z,4.44
2017-05-22T12:47:57.283Z,4.44
2017-05-22T12:50:32.587Z,4.80
2017-05-22T12:53:07.883Z,3.52
2017-05-22T12:55:43.285Z,3.76
2017-05-22T12:58:18.758Z,4.08
2017-05-22T13:00:53.992Z,4.52
2017-05-22T13:03:29.353Z,4.68
2017-05-22T13:06:04.661Z,5.10
2017-05-22T13:08:40.356Z,4.18
2017-05-22T13:11:15.810Z,4.62
2017-05-22T13:13:51.123Z,4.22
2017-05-22T13:16:26.508Z,4.10
2017-05-22T13:19:01.899Z,2.82
2017-05-22T13:21:37.414Z,3.50
2017-05-22T13:24:12.590Z,4.22
2017-05-22T13:26:47.869Z,3.68
2017-05-22T13:29:23.244Z,3.40
2017-05-22T13:31:58.517Z,3.40
2017-05-22T13:34:33.912Z,3.70
2017-05-22T13:37:09.222Z,3.46
2017-05-22T13:39:44.527Z,3.20
2017-05-22T13:42:19.873Z,3.40
2017-05-22T13:44:55.286Z,3.30
2017-05-22T13:47:30.683Z,2.92
2017-05-22T13:50:05.938Z,2.74
2017-05-22T13:52:41.214Z,3.84
2017-05-22T13:55:17.299Z,3.64
2017-05-22T13:57:52.655Z,4.38
2017-05-22T14:00:27.938Z,3.70
2017-05-22T14:03:03.423Z,4.60
2017-05-22T14:05:38.861Z,4.54
2017-05-22T14:08:14.291Z,4.64
2017-05-22T14:10:49.546Z,5.92
2017-05-22T14:13:24.990Z,5.82
2017-05-22T14:16:00.247Z,4.72
2017-05-22T14:18:35.540Z,4.74
2017-05-22T14:21:10.711Z,5.10
2017-05-22T14:23:46.044Z,4.62
2017-05-22T14:26:21.447Z,4.54
2017-05-22T14:28:56.801Z,5.08
2017-05-22T14:31:32.007Z,5.12
2017-05-22T14:34:07.307Z,3.98
2017-05-22T14:36:42.878Z,5.28
2017-05-22T14:39:18.028Z,4.56
2017-05-22T14:41:53.352Z,5.28
2017-05-22T14:44:28.663Z,4.82
2017-05-22T14:47:03.999Z,4.68
2017-05-22T14:49:39.330Z,4.94
2017-05-22T14:52:14.638Z,4.98
2017-05-22T14:54:50.046Z,4.74
2017-05-22T14:57:25.359Z,5.76
2017-05-22T15:00:00.641Z,5.12
2017-05-22T15:02:35.978Z,6.90
2017-05-22T15:05:11.304Z,5.86
2017-05-22T15:07:46.592Z,4.26
2017-05-22T15:10:21.912Z,4.78
2017-05-22T15:12:57.158Z,6.32
2017-05-22T15:15:32.584Z,5.98
2017-05-22T15:18:07.764Z,6.64
2017-05-22T15:20:43.171Z,5.30
2017-05-22T15:23:18.355Z,7.08
2017-05-22T15:25:53.684Z,6.70
2017-05-22T15:28:28.938Z,6.84
2017-05-22T15:31:04.204Z,8.80
2017-05-22T15:33:39.370Z,8.00
2017-05-22T15:36:14.646Z,6.30
2017-05-22T15:38:50.011Z,6.15
2017-05-22T15:41:25.493Z,7.32
2017-05-22T15:44:00.790Z,6.18
2017-05-22T15:46:36.293Z,7.57
2017-05-22T15:49:11.471Z,6.65
2017-05-22T15:51:46.853Z,6.07
2017-05-22T15:54:22.146Z,6.00
2017-05-22T15:56:57.409Z,5.78
2017-05-22T15:59:32.683Z,6.35
2017-05-22T16:02:08.469Z,4.88
2017-05-22T16:04:43.898Z,5.72
2017-05-22T16:07:19.097Z,6.58
2017-05-22T16:09:54.447Z,5.92
2017-05-22T16:12:29.759Z,5.98
2017-05-22T16:15:05.092Z,6.18
2017-05-22T16:17:40.381Z,6.55
2017-05-22T16:20:15.754Z,7.30
2017-05-22T16:22:51.190Z,7.60
2017-05-22T16:25:27.587Z,7.17
2017-05-22T16:28:02.967Z,6.28
2017-05-22T16:30:38.308Z,6.32
2017-05-22T16:33:13.647Z,6.32
2017-05-22T16:35:48.782Z,5.98
2017-05-22T16:38:24.044Z,7.60
2017-05-22T16:40:59.339Z,7.22
2017-05-22T16:43:34.797Z,5.32
2017-05-22T16:46:10.098Z,6.92
2017-05-22T16:48:45.354Z,5.35
2017-05-22T16:51:20.733Z,6.07
2017-05-22T16:53:56.602Z,5.55
2017-05-22T16:56:32.105Z,5.03
2017-05-22T16:59:07.398Z,5.48
2017-05-22T17:01:42.828Z,5.48
2017-05-22T17:04:18.174Z,5.10
2017-05-22T17:07:01.158Z,5.58
2017-05-22T17:09:45.099Z,5.02
2017-05-22T17:12:27.853Z,5.60
2017-05-22T17:15:12.690Z,11.95
2017-05-22T17:17:55.792Z,4.78
2017-05-22T17:20:38.737Z,5.42
2017-05-22T17:23:15.440Z,5.65
2017-05-22T17:25:50.922Z,6.52
2017-05-22T17:28:26.312Z,5.27
2017-05-22T17:31:01.679Z,5.57
2017-05-22T17:33:37.063Z,5.67
2017-05-22T17:36:12.539Z,5.45
2017-05-22T17:38:47.687Z,6.63
2017-05-22T17:41:23.080Z,4.97
2017-05-22T17:43:58.454Z,5.10
2017-05-22T17:46:33.839Z,4.58
2017-05-22T17:49:09.346Z,5.77
2017-05-22T17:51:44.549Z,4.70
2017-05-22T17:54:20.032Z,5.38
2017-05-22T17:56:55.538Z,5.15
2017-05-22T17:59:30.814Z,6.08
2017-05-22T18:02:06.135Z,5.80
2017-05-22T18:04:41.504Z,6.07
2017-05-22T18:07:17.774Z,5.82
2017-05-22T18:09:53.133Z,5.57
2017-05-22T18:12:30.140Z,5.53
2017-05-22T18:15:05.626Z,5.72
2017-05-22T18:17:41.014Z,5.65
2017-05-22T18:20:16.191Z,5.62
2017-05-22T18:22:52.466Z,5.02
2017-05-22T18:25:28.023Z,4.82
2017-05-22T18:28:03.534Z,5.10
2017-05-22T18:30:39.276Z,5.45
2017-05-22T18:33:15.375Z,5.23
2017-05-22T18:35:51.094Z,5.62
2017-05-22T18:38:32.610Z,6.00
2017-05-22T18:41:15.469Z,5.18
2017-05-22T18:43:53.292Z,5.78
2017-05-22T18:46:30.449Z,5.42
2017-05-22T18:49:07.337Z,5.13
2017-05-22T18:51:43.644Z,6.03
2017-05-22T18:54:19.899Z,4.65
2017-05-22T18:56:57.019Z,5.42
2017-05-22T18:59:33.628Z,5.48
2017-05-22T19:02:10.325Z,5.35
2017-05-22T19:04:45.678Z,5.55
2017-05-22T19:07:21.042Z,4.93
2017-05-22T19:09:56.235Z,5.48
2017-05-22T19:12:31.784Z,5.10
2017-05-22T19:15:06.953Z,5.60
2017-05-22T19:17:42.564Z,5.70
2017-05-22T19:20:17.759Z,5.88
2017-05-22T19:22:53.142Z,5.98
2017-05-22T19:25:28.288Z,5.68
2017-05-22T19:28:03.659Z,5.80
2017-05-22T19:30:38.846Z,6.57
2017-05-22T19:33:14.408Z,6.75
2017-05-22T19:35:49.547Z,5.92
2017-05-22T19:38:24.919Z,6.80
2017-05-22T19:41:01.037Z,6.88
2017-05-22T19:43:36.471Z,6.35
2017-05-22T19:46:11.846Z,8.15
2017-05-22T19:48:47.473Z,6.28
2017-05-22T19:51:22.855Z,6.75
2017-05-22T19:53:58.087Z,6.87
2017-05-22T19:56:33.342Z,7.27
2017-05-22T19:59:08.632Z,6.48
2017-05-22T20:01:43.835Z,6.70
2017-05-22T20:04:19.159Z,6.65
2017-05-22T20:06:54.486Z,7.20
2017-05-22T20:09:29.840Z,6.95
2017-05-22T20:12:05.082Z,7.48
2017-05-22T20:14:40.675Z,8.00
2017-05-22T20:17:15.923Z,6.75
2017-05-22T20:19:51.300Z,7.20
2017-05-22T20:22:26.643Z,7.53
2017-05-22T20:25:02.041Z,7.13
2017-05-22T20:27:37.278Z,6.98
2017-05-22T20:30:12.594Z,8.00
2017-05-22T20:32:47.897Z,6.40
2017-05-22T20:35:23.231Z,6.72
2017-05-22T20:37:58.631Z,6.60
2017-05-22T20:40:34.121Z,6.00
2017-05-22T20:43:09.437Z,6.60
2017-05-22T20:45:44.939Z,6.57
2017-05-22T20:48:20.255Z,6.45
2017-05-22T20:50:55.744Z,7.22
2017-05-22T20:53:30.963Z,6.10
2017-05-22T20:56:06.285Z,6.05
2017-05-22T20:58:41.442Z,6.78
2017-05-22T21:01:16.888Z,6.67
2017-05-22T21:03:52.140Z,6.27
2017-05-22T21:06:27.702Z,7.17
2017-05-22T21:09:02.935Z,8.58
2017-05-22T21:11:38.259Z,7.25
2017-05-22T21:14:13.521Z,5.85
2017-05-22T21:16:48.821Z,6.58
2017-05-22T21:19:24.104Z,6.27
2017-05-22T21:21:59.303Z,6.47
2017-05-22T21:24:34.599Z,6.20
2017-05-22T21:27:09.975Z,7.03
2017-05-22T21:29:45.259Z,6.62
2017-05-22T21:32:20.727Z,6.98
2017-05-22T21:34:56.031Z,6.25
2017-05-22T21:37:31.291Z,6.90
2017-05-22T21:40:06.528Z,7.43
2017-05-22T21:42:41.865Z,7.93
2017-05-22T21:45:17.131Z,8.18
2017-05-22T21:47:52.812Z,7.42
2017-05-22T21:50:27.987Z,7.55
2017-05-22T21:53:03.491Z,8.52
2017-05-22T21:55:38.727Z,8.90
2017-05-22T21:58:14.188Z,8.75
2017-05-22T22:00:49.371Z,7.82
2017-05-22T22:03:24.731Z,8.75
2017-05-22T22:06:00.002Z,8.22
2017-05-22T22:08:35.310Z,7.67
2017-05-22T22:11:10.582Z,7.55
2017-05-22T22:13:45.882Z,7.87
2017-05-22T22:16:21.193Z,7.45
2017-05-22T22:18:56.699Z,8.40
2017-05-22T22:21:31.983Z,7.92
2017-05-22T22:24:07.319Z,8.07
2017-05-22T22:26:42.556Z,7.95
2017-05-22T22:29:17.879Z,8.55
2017-05-22T22:31:53.055Z,7.87
2017-05-22T22:34:28.335Z,8.32
2017-05-22T22:37:03.587Z,6.92
2017-05-22T22:39:38.891Z,7.78
2017-05-22T22:42:14.341Z,7.25
2017-05-22T22:44:49.825Z,6.92
2017-05-22T22:47:25.193Z,6.77
2017-05-22T22:50:00.440Z,7.28
2017-05-22T22:52:35.760Z,7.97
2017-05-22T22:55:11.166Z,6.92
2017-05-22T22:57:46.416Z,6.58
2017-05-22T23:00:21.711Z,7.17
2017-05-22T23:02:56.969Z,6.12
2017-05-22T23:05:32.242Z,6.42
2017-05-22T23:08:07.408Z,6.13
2017-05-22T23:10:42.783Z,6.47
2017-05-22T23:13:18.063Z,7.20
2017-05-22T23:15:53.381Z,6.17
2017-05-22T23:18:28.669Z,7.43
2017-05-22T23:21:04.034Z,5.80
2017-05-22T23:23:44.449Z,6.37
2017-05-22T23:26:20.908Z,6.30
2017-05-22T23:28:56.133Z,7.03
2017-05-22T23:31:31.402Z,6.40
2017-05-22T23:34:12.425Z,6.17
2017-05-22T23:36:48.583Z,6.50
2017-05-22T23:39:24.846Z,5.85
2017-05-22T23:42:00.111Z,7.10
2017-05-22T23:44:35.382Z,6.12
2017-05-22T23:47:10.807Z,6.25
2017-05-22T23:49:46.078Z,5.82
2017-05-22T23:52:21.819Z,6.17
2017-05-22T23:54:56.973Z,6.50
2017-05-22T23:57:32.418Z,6.05
